sensor_id;sensor_type;location;lat;lon;timestamp;temperature;humidity
53065;DHT22;38948;48.376;-4.312;2022-08-04T00:00:24;22.50;76.40
53065;DHT22;38948;48.376;-4.312;2022-08-04T00:02:54;22.50;76.20
53065;DHT22;38948;48.376;-4.312;2022-08-04T00:11:07;22.50;76.10
53065;DHT22;38948;48.376;-4.312;2022-08-04T00:13:37;22.40;76.20
53065;DHT22;38948;48.376;-4.312;2022-08-04T00:16:08;22.40;76.10
53065;DHT22;38948;48.376;-4.312;2022-08-04T00:18:45;22.40;76.10
53065;DHT22;38948;48.376;-4.312;2022-08-04T00:21:14;22.40;76.10
53065;DHT22;38948;48.376;-4.312;2022-08-04T00:23:43;22.40;76.00
53065;DHT22;38948;48.376;-4.312;2022-08-04T00:26:09;22.30;76.10
53065;DHT22;38948;48.376;-4.312;2022-08-04T00:28:36;22.30;76.20
53065;DHT22;38948;48.376;-4.312;2022-08-04T00:31:09;22.30;76.00
53065;DHT22;38948;48.376;-4.312;2022-08-04T00:33:37;22.30;76.10
53065;DHT22;38948;48.376;-4.312;2022-08-04T00:36:03;22.30;75.90
53065;DHT22;38948;48.376;-4.312;2022-08-04T00:38:29;22.30;75.90
53065;DHT22;38948;48.376;-4.312;2022-08-04T00:41:08;22.30;76.00
53065;DHT22;38948;48.376;-4.312;2022-08-04T00:54:17;22.20;76.00
53065;DHT22;38948;48.376;-4.312;2022-08-04T00:57:02;22.20;75.90
53065;DHT22;38948;48.376;-4.312;2022-08-04T00:59:49;22.10;76.00
53065;DHT22;38948;48.376;-4.312;2022-08-04T01:05:18;22.10;75.90
53065;DHT22;38948;48.376;-4.312;2022-08-04T01:16:15;22.00;75.90
53065;DHT22;38948;48.376;-4.312;2022-08-04T01:21:48;21.90;76.00
53065;DHT22;38948;48.376;-4.312;2022-08-04T01:27:17;21.90;75.90
53065;DHT22;38948;48.376;-4.312;2022-08-04T01:29:55;21.90;76.10
53065;DHT22;38948;48.376;-4.312;2022-08-04T01:32:36;21.90;76.10
53065;DHT22;38948;48.376;-4.312;2022-08-04T01:35:28;21.80;76.00
53065;DHT22;38948;48.376;-4.312;2022-08-04T01:40:27;21.80;76.20
53065;DHT22;38948;48.376;-4.312;2022-08-04T01:42:54;21.80;76.40
53065;DHT22;38948;48.376;-4.312;2022-08-04T01:45:23;21.80;76.40
53065;DHT22;38948;48.376;-4.312;2022-08-04T01:47:52;21.70;76.30
53065;DHT22;38948;48.376;-4.312;2022-08-04T01:50:18;21.70;76.30
53065;DHT22;38948;48.376;-4.312;2022-08-04T01:52:45;21.70;76.40
53065;DHT22;38948;48.376;-4.312;2022-08-04T01:55:13;21.70;76.40
53065;DHT22;38948;48.376;-4.312;2022-08-04T01:57:44;21.70;76.40
53065;DHT22;38948;48.376;-4.312;2022-08-04T02:00:13;21.70;76.40
53065;DHT22;38948;48.376;-4.312;2022-08-04T02:02:39;21.70;76.30
53065;DHT22;38948;48.376;-4.312;2022-08-04T02:05:05;21.60;76.40
53065;DHT22;38948;48.376;-4.312;2022-08-04T02:13:16;21.60;76.60
53065;DHT22;38948;48.376;-4.312;2022-08-04T02:16:19;21.60;76.50
53065;DHT22;38948;48.376;-4.312;2022-08-04T02:19:23;21.60;76.60
53065;DHT22;38948;48.376;-4.312;2022-08-04T02:21:57;21.60;76.60
53065;DHT22;38948;48.376;-4.312;2022-08-04T02:24:27;21.60;76.60
53065;DHT22;38948;48.376;-4.312;2022-08-04T02:26:55;21.50;76.60
53065;DHT22;38948;48.376;-4.312;2022-08-04T02:29:44;21.50;76.60
53065;DHT22;38948;48.376;-4.312;2022-08-04T02:32:25;21.50;76.60
53065;DHT22;38948;48.376;-4.312;2022-08-04T02:35:08;21.50;76.60
53065;DHT22;38948;48.376;-4.312;2022-08-04T02:37:48;21.50;76.50
53065;DHT22;38948;48.376;-4.312;2022-08-04T02:40:20;21.40;76.60
53065;DHT22;38948;48.376;-4.312;2022-08-04T02:42:49;21.40;76.70
53065;DHT22;38948;48.376;-4.312;2022-08-04T02:45:17;21.40;76.80
53065;DHT22;38948;48.376;-4.312;2022-08-04T02:47:45;21.40;76.90
53065;DHT22;38948;48.376;-4.312;2022-08-04T02:50:14;21.40;76.70
53065;DHT22;38948;48.376;-4.312;2022-08-04T02:52:42;21.40;76.80
53065;DHT22;38948;48.376;-4.312;2022-08-04T02:55:11;21.40;76.90
53065;DHT22;38948;48.376;-4.312;2022-08-04T02:57:38;21.30;76.90
53065;DHT22;38948;48.376;-4.312;2022-08-04T03:00:08;21.30;77.00
53065;DHT22;38948;48.376;-4.312;2022-08-04T03:15:26;21.30;77.30
53065;DHT22;38948;48.376;-4.312;2022-08-04T03:20:59;21.30;77.50
53065;DHT22;38948;48.376;-4.312;2022-08-04T03:34:24;21.40;77.40
53065;DHT22;38948;48.376;-4.312;2022-08-04T03:39:49;21.40;77.50
53065;DHT22;38948;48.376;-4.312;2022-08-04T03:42:29;21.40;77.50
53065;DHT22;38948;48.376;-4.312;2022-08-04T03:53:24;21.40;77.30
53065;DHT22;38948;48.376;-4.312;2022-08-04T04:01:38;21.40;77.30
53065;DHT22;38948;48.376;-4.312;2022-08-04T04:07:21;21.40;77.20
53065;DHT22;38948;48.376;-4.312;2022-08-04T04:38:14;21.40;76.50
53065;DHT22;38948;48.376;-4.312;2022-08-04T04:54:59;21.30;76.20
53065;DHT22;38948;48.376;-4.312;2022-08-04T04:57:30;21.30;76.20
53065;DHT22;38948;48.376;-4.312;2022-08-04T05:00:04;21.30;76.10
53065;DHT22;38948;48.376;-4.312;2022-08-04T05:07:54;21.30;76.20
53065;DHT22;38948;48.376;-4.312;2022-08-04T05:21:48;21.10;76.10
53065;DHT22;38948;48.376;-4.312;2022-08-04T05:24:17;21.20;76.10
53065;DHT22;38948;48.376;-4.312;2022-08-04T05:26:49;21.10;76.00
53065;DHT22;38948;48.376;-4.312;2022-08-04T05:29:49;21.10;76.00
53065;DHT22;38948;48.376;-4.312;2022-08-04T05:32:21;21.10;76.00
53065;DHT22;38948;48.376;-4.312;2022-08-04T05:35:01;21.10;75.90
53065;DHT22;38948;48.376;-4.312;2022-08-04T05:37:29;21.10;75.90
53065;DHT22;38948;48.376;-4.312;2022-08-04T05:39:58;21.10;75.80
53065;DHT22;38948;48.376;-4.312;2022-08-04T05:42:26;21.10;76.00
53065;DHT22;38948;48.376;-4.312;2022-08-04T05:44:53;21.10;75.90
53065;DHT22;38948;48.376;-4.312;2022-08-04T05:47:19;21.00;75.90
53065;DHT22;38948;48.376;-4.312;2022-08-04T05:49:46;21.00;75.90
53065;DHT22;38948;48.376;-4.312;2022-08-04T05:52:13;21.00;75.80
53065;DHT22;38948;48.376;-4.312;2022-08-04T05:54:40;21.00;75.80
53065;DHT22;38948;48.376;-4.312;2022-08-04T05:57:07;21.00;75.80
53065;DHT22;38948;48.376;-4.312;2022-08-04T05:59:37;21.00;75.90
53065;DHT22;38948;48.376;-4.312;2022-08-04T06:02:03;21.00;75.90
53065;DHT22;38948;48.376;-4.312;2022-08-04T06:04:34;21.00;75.90
53065;DHT22;38948;48.376;-4.312;2022-08-04T06:07:02;21.00;75.80
53065;DHT22;38948;48.376;-4.312;2022-08-04T06:09:28;21.00;75.80
53065;DHT22;38948;48.376;-4.312;2022-08-04T06:11:56;21.00;75.80
53065;DHT22;38948;48.376;-4.312;2022-08-04T06:14:24;21.00;77.20
53065;DHT22;38948;48.376;-4.312;2022-08-04T06:16:52;21.10;77.50
53065;DHT22;38948;48.376;-4.312;2022-08-04T06:19:20;21.20;77.40
53065;DHT22;38948;48.376;-4.312;2022-08-04T06:21:50;21.30;77.30
53065;DHT22;38948;48.376;-4.312;2022-08-04T06:24:19;21.40;77.10
53065;DHT22;38948;48.376;-4.312;2022-08-04T06:26:48;21.50;76.70
53065;DHT22;38948;48.376;-4.312;2022-08-04T06:29:19;21.60;76.90
53065;DHT22;38948;48.376;-4.312;2022-08-04T06:31:58;21.70;76.80
53065;DHT22;38948;48.376;-4.312;2022-08-04T06:34:29;21.80;76.40
53065;DHT22;38948;48.376;-4.312;2022-08-04T06:36:56;21.90;76.20
53065;DHT22;38948;48.376;-4.312;2022-08-04T06:39:23;22.10;75.60
53065;DHT22;38948;48.376;-4.312;2022-08-04T06:41:52;22.20;75.50
53065;DHT22;38948;48.376;-4.312;2022-08-04T06:44:19;22.30;76.30
53065;DHT22;38948;48.376;-4.312;2022-08-04T06:46:46;22.40;76.20
53065;DHT22;38948;48.376;-4.312;2022-08-04T06:49:13;22.50;74.70
53065;DHT22;38948;48.376;-4.312;2022-08-04T06:51:40;22.60;74.00
53065;DHT22;38948;48.376;-4.312;2022-08-04T06:54:06;22.60;74.20
53065;DHT22;38948;48.376;-4.312;2022-08-04T06:56:33;22.70;73.50
53065;DHT22;38948;48.376;-4.312;2022-08-04T06:59:01;22.80;73.80
53065;DHT22;38948;48.376;-4.312;2022-08-04T07:01:27;22.90;73.70
53065;DHT22;38948;48.376;-4.312;2022-08-04T07:03:54;22.90;73.10
53065;DHT22;38948;48.376;-4.312;2022-08-04T07:06:21;23.00;72.90
53065;DHT22;38948;48.376;-4.312;2022-08-04T07:08:48;23.10;73.50
53065;DHT22;38948;48.376;-4.312;2022-08-04T07:11:15;23.10;73.30
53065;DHT22;38948;48.376;-4.312;2022-08-04T07:13:42;23.10;72.90
53065;DHT22;38948;48.376;-4.312;2022-08-04T07:16:12;23.10;72.40
53065;DHT22;38948;48.376;-4.312;2022-08-04T07:18:39;23.20;72.30
53065;DHT22;38948;48.376;-4.312;2022-08-04T07:21:05;23.20;72.20
53065;DHT22;38948;48.376;-4.312;2022-08-04T07:23:31;23.30;72.10
53065;DHT22;38948;48.376;-4.312;2022-08-04T07:25:57;23.30;72.00
53065;DHT22;38948;48.376;-4.312;2022-08-04T07:28:25;23.30;71.60
53065;DHT22;38948;48.376;-4.312;2022-08-04T07:30:52;23.30;71.30
53065;DHT22;38948;48.376;-4.312;2022-08-04T07:33:19;23.30;71.50
53065;DHT22;38948;48.376;-4.312;2022-08-04T07:35:48;23.30;71.40
53065;DHT22;38948;48.376;-4.312;2022-08-04T07:38:14;23.40;71.20
53065;DHT22;38948;48.376;-4.312;2022-08-04T07:40:41;23.40;70.60
53065;DHT22;38948;48.376;-4.312;2022-08-04T07:43:07;23.40;70.40
53065;DHT22;38948;48.376;-4.312;2022-08-04T07:45:33;23.40;69.90
53065;DHT22;38948;48.376;-4.312;2022-08-04T07:48:01;23.40;70.40
53065;DHT22;38948;48.376;-4.312;2022-08-04T07:50:28;23.40;69.80
53065;DHT22;38948;48.376;-4.312;2022-08-04T07:52:55;23.40;70.10
53065;DHT22;38948;48.376;-4.312;2022-08-04T07:55:21;23.40;70.00
53065;DHT22;38948;48.376;-4.312;2022-08-04T07:57:47;23.50;69.80
53065;DHT22;38948;48.376;-4.312;2022-08-04T08:00:13;23.50;69.20
53065;DHT22;38948;48.376;-4.312;2022-08-04T08:02:47;23.50;68.80
53065;DHT22;38948;48.376;-4.312;2022-08-04T08:05:15;23.50;68.60
53065;DHT22;38948;48.376;-4.312;2022-08-04T08:07:48;23.50;68.60
53065;DHT22;38948;48.376;-4.312;2022-08-04T08:10:14;23.50;69.20
53065;DHT22;38948;48.376;-4.312;2022-08-04T08:12:41;23.50;68.60
53065;DHT22;38948;48.376;-4.312;2022-08-04T08:15:09;23.50;68.20
53065;DHT22;38948;48.376;-4.312;2022-08-04T08:17:35;23.50;67.70
53065;DHT22;38948;48.376;-4.312;2022-08-04T08:20:02;23.60;67.60
53065;DHT22;38948;48.376;-4.312;2022-08-04T08:22:28;23.60;67.60
53065;DHT22;38948;48.376;-4.312;2022-08-04T08:24:55;23.60;67.50
53065;DHT22;38948;48.376;-4.312;2022-08-04T08:27:21;23.60;67.30
53065;DHT22;38948;48.376;-4.312;2022-08-04T08:29:48;23.60;67.50
53065;DHT22;38948;48.376;-4.312;2022-08-04T08:32:14;23.60;67.70
53065;DHT22;38948;48.376;-4.312;2022-08-04T08:34:41;23.70;67.90
53065;DHT22;38948;48.376;-4.312;2022-08-04T08:37:44;23.70;68.10
53065;DHT22;38948;48.376;-4.312;2022-08-04T08:51:43;23.90;68.20
53065;DHT22;38948;48.376;-4.312;2022-08-04T09:00:03;23.90;67.10
53065;DHT22;38948;48.376;-4.312;2022-08-04T09:02:48;23.90;66.70
53065;DHT22;38948;48.376;-4.312;2022-08-04T09:10:49;23.90;65.80
53065;DHT22;38948;48.376;-4.312;2022-08-04T09:13:36;23.90;65.50
53065;DHT22;38948;48.376;-4.312;2022-08-04T09:16:13;23.90;65.80
53065;DHT22;38948;48.376;-4.312;2022-08-04T09:19:09;23.90;65.50
53065;DHT22;38948;48.376;-4.312;2022-08-04T09:22:16;23.90;66.00
53065;DHT22;38948;48.376;-4.312;2022-08-04T09:25:01;24.00;65.80
53065;DHT22;38948;48.376;-4.312;2022-08-04T09:27:54;24.00;66.60
53065;DHT22;38948;48.376;-4.312;2022-08-04T09:30:28;24.00;67.20
53065;DHT22;38948;48.376;-4.312;2022-08-04T09:33:06;24.00;66.80
53065;DHT22;38948;48.376;-4.312;2022-08-04T09:35:56;24.10;67.00
53065;DHT22;38948;48.376;-4.312;2022-08-04T09:38:40;24.10;66.90
53065;DHT22;38948;48.376;-4.312;2022-08-04T09:41:13;24.00;67.00
53065;DHT22;38948;48.376;-4.312;2022-08-04T09:49:22;24.10;67.20
53065;DHT22;38948;48.376;-4.312;2022-08-04T09:54:40;24.00;67.20
53065;DHT22;38948;48.376;-4.312;2022-08-04T10:00:05;24.00;67.40
53065;DHT22;38948;48.376;-4.312;2022-08-04T10:02:55;24.10;67.40
53065;DHT22;38948;48.376;-4.312;2022-08-04T10:11:52;24.10;67.50
53065;DHT22;38948;48.376;-4.312;2022-08-04T10:14:47;24.10;67.50
53065;DHT22;38948;48.376;-4.312;2022-08-04T10:23:04;24.10;67.60
53065;DHT22;38948;48.376;-4.312;2022-08-04T10:28:23;24.10;67.60
53065;DHT22;38948;48.376;-4.312;2022-08-04T10:30:54;24.10;67.30
53065;DHT22;38948;48.376;-4.312;2022-08-04T10:36:08;24.10;67.30
53065;DHT22;38948;48.376;-4.312;2022-08-04T10:38:45;24.10;67.20
53065;DHT22;38948;48.376;-4.312;2022-08-04T10:41:36;24.10;67.20
53065;DHT22;38948;48.376;-4.312;2022-08-04T10:47:00;24.20;67.30
53065;DHT22;38948;48.376;-4.312;2022-08-04T10:49:37;24.20;67.10
53065;DHT22;38948;48.376;-4.312;2022-08-04T10:52:13;24.20;67.30
53065;DHT22;38948;48.376;-4.312;2022-08-04T10:57:39;24.20;67.00
53065;DHT22;38948;48.376;-4.312;2022-08-04T11:00:11;24.20;67.10
53065;DHT22;38948;48.376;-4.312;2022-08-04T11:05:44;24.20;67.20
53065;DHT22;38948;48.376;-4.312;2022-08-04T11:13:20;24.20;67.20
53065;DHT22;38948;48.376;-4.312;2022-08-04T11:15:51;24.20;67.10
53065;DHT22;38948;48.376;-4.312;2022-08-04T11:18:30;24.20;67.20
53065;DHT22;38948;48.376;-4.312;2022-08-04T11:21:03;24.20;67.10
53065;DHT22;38948;48.376;-4.312;2022-08-04T11:23:34;24.20;67.30
53065;DHT22;38948;48.376;-4.312;2022-08-04T11:26:08;24.20;67.10
53065;DHT22;38948;48.376;-4.312;2022-08-04T11:28:52;24.20;67.10
53065;DHT22;38948;48.376;-4.312;2022-08-04T11:31:26;24.20;67.20
53065;DHT22;38948;48.376;-4.312;2022-08-04T11:34:09;24.20;67.20
53065;DHT22;38948;48.376;-4.312;2022-08-04T11:42:36;24.30;67.20
53065;DHT22;38948;48.376;-4.312;2022-08-04T11:45:18;24.20;67.10
53065;DHT22;38948;48.376;-4.312;2022-08-04T11:47:53;24.30;67.20
53065;DHT22;38948;48.376;-4.312;2022-08-04T11:50:28;24.30;67.10
53065;DHT22;38948;48.376;-4.312;2022-08-04T11:52:56;24.30;67.20
53065;DHT22;38948;48.376;-4.312;2022-08-04T11:55:25;24.30;67.20
53065;DHT22;38948;48.376;-4.312;2022-08-04T11:57:52;24.30;67.20
53065;DHT22;38948;48.376;-4.312;2022-08-04T12:00:19;24.30;67.20
53065;DHT22;38948;48.376;-4.312;2022-08-04T12:06:29;24.30;67.40
53065;DHT22;38948;48.376;-4.312;2022-08-04T12:12:34;24.30;67.40
53065;DHT22;38948;48.376;-4.312;2022-08-04T12:15:32;24.30;67.20
53065;DHT22;38948;48.376;-4.312;2022-08-04T12:18:13;24.30;67.10
53065;DHT22;38948;48.376;-4.312;2022-08-04T12:20:48;24.30;67.10
53065;DHT22;38948;48.376;-4.312;2022-08-04T12:23:35;24.30;67.20
53065;DHT22;38948;48.376;-4.312;2022-08-04T12:26:06;24.30;67.20
53065;DHT22;38948;48.376;-4.312;2022-08-04T12:28:36;24.30;67.20
53065;DHT22;38948;48.376;-4.312;2022-08-04T12:31:44;24.30;67.20
53065;DHT22;38948;48.376;-4.312;2022-08-04T12:34:42;24.30;67.30
53065;DHT22;38948;48.376;-4.312;2022-08-04T12:37:25;24.30;67.50
53065;DHT22;38948;48.376;-4.312;2022-08-04T12:39:59;24.30;67.30
53065;DHT22;38948;48.376;-4.312;2022-08-04T12:42:40;24.30;67.20
53065;DHT22;38948;48.376;-4.312;2022-08-04T12:45:08;24.30;67.30
53065;DHT22;38948;48.376;-4.312;2022-08-04T12:47:35;24.30;66.90
53065;DHT22;38948;48.376;-4.312;2022-08-04T12:50:03;24.30;67.00
53065;DHT22;38948;48.376;-4.312;2022-08-04T12:52:41;24.30;66.80
53065;DHT22;38948;48.376;-4.312;2022-08-04T12:55:08;24.30;66.80
53065;DHT22;38948;48.376;-4.312;2022-08-04T12:57:35;24.30;66.80
53065;DHT22;38948;48.376;-4.312;2022-08-04T13:00:02;24.30;66.70
53065;DHT22;38948;48.376;-4.312;2022-08-04T13:02:41;24.30;66.80
53065;DHT22;38948;48.376;-4.312;2022-08-04T13:05:11;24.30;66.90
53065;DHT22;38948;48.376;-4.312;2022-08-04T13:07:49;24.30;66.90
53065;DHT22;38948;48.376;-4.312;2022-08-04T13:10:17;24.30;66.90
53065;DHT22;38948;48.376;-4.312;2022-08-04T13:12:55;24.30;66.80
53065;DHT22;38948;48.376;-4.312;2022-08-04T13:15:22;24.30;66.60
53065;DHT22;38948;48.376;-4.312;2022-08-04T13:17:52;24.40;66.70
53065;DHT22;38948;48.376;-4.312;2022-08-04T13:20:36;24.40;66.60
53065;DHT22;38948;48.376;-4.312;2022-08-04T13:23:24;24.30;66.60
53065;DHT22;38948;48.376;-4.312;2022-08-04T13:25:52;24.40;66.70
53065;DHT22;38948;48.376;-4.312;2022-08-04T13:28:26;24.40;66.80
53065;DHT22;38948;48.376;-4.312;2022-08-04T13:30:55;24.40;66.80
53065;DHT22;38948;48.376;-4.312;2022-08-04T13:33:26;24.40;67.00
53065;DHT22;38948;48.376;-4.312;2022-08-04T13:35:55;24.40;66.90
53065;DHT22;38948;48.376;-4.312;2022-08-04T13:38:23;24.40;66.90
53065;DHT22;38948;48.376;-4.312;2022-08-04T13:40:51;24.40;66.90
53065;DHT22;38948;48.376;-4.312;2022-08-04T13:43:29;24.40;66.90
53065;DHT22;38948;48.376;-4.312;2022-08-04T13:46:02;24.40;66.90
53065;DHT22;38948;48.376;-4.312;2022-08-04T13:48:37;24.40;67.00
53065;DHT22;38948;48.376;-4.312;2022-08-04T13:51:05;24.40;67.00
53065;DHT22;38948;48.376;-4.312;2022-08-04T13:53:36;24.40;67.00
53065;DHT22;38948;48.376;-4.312;2022-08-04T13:56:04;24.40;67.10
53065;DHT22;38948;48.376;-4.312;2022-08-04T13:58:32;24.40;67.10
53065;DHT22;38948;48.376;-4.312;2022-08-04T14:01:12;24.40;67.10
53065;DHT22;38948;48.376;-4.312;2022-08-04T14:04:03;24.40;67.10
53065;DHT22;38948;48.376;-4.312;2022-08-04T14:06:30;24.40;67.10
53065;DHT22;38948;48.376;-4.312;2022-08-04T14:09:19;24.40;67.00
53065;DHT22;38948;48.376;-4.312;2022-08-04T14:11:50;24.40;67.90
53065;DHT22;38948;48.376;-4.312;2022-08-04T14:14:26;24.50;67.40
53065;DHT22;38948;48.376;-4.312;2022-08-04T14:17:04;24.50;67.00
53065;DHT22;38948;48.376;-4.312;2022-08-04T14:25:16;24.60;66.30
53065;DHT22;38948;48.376;-4.312;2022-08-04T14:27:49;24.60;66.40
53065;DHT22;38948;48.376;-4.312;2022-08-04T14:30:33;24.60;66.30
53065;DHT22;38948;48.376;-4.312;2022-08-04T14:33:07;24.60;65.80
53065;DHT22;38948;48.376;-4.312;2022-08-04T14:35:33;24.60;65.70
53065;DHT22;38948;48.376;-4.312;2022-08-04T14:38:02;24.60;65.70
53065;DHT22;38948;48.376;-4.312;2022-08-04T14:40:30;24.70;65.30
53065;DHT22;38948;48.376;-4.312;2022-08-04T14:42:57;24.70;65.30
53065;DHT22;38948;48.376;-4.312;2022-08-04T14:48:09;24.70;65.10
53065;DHT22;38948;48.376;-4.312;2022-08-04T14:50:46;24.80;65.60
53065;DHT22;38948;48.376;-4.312;2022-08-04T14:53:18;24.70;65.90
53065;DHT22;38948;48.376;-4.312;2022-08-04T14:55:49;24.70;66.00
53065;DHT22;38948;48.376;-4.312;2022-08-04T14:58:21;24.70;65.80
53065;DHT22;38948;48.376;-4.312;2022-08-04T15:00:48;24.70;66.00
53065;DHT22;38948;48.376;-4.312;2022-08-04T15:03:14;24.70;65.60
53065;DHT22;38948;48.376;-4.312;2022-08-04T15:05:43;24.70;65.60
53065;DHT22;38948;48.376;-4.312;2022-08-04T15:08:12;24.70;65.30
53065;DHT22;38948;48.376;-4.312;2022-08-04T15:10:39;24.70;64.10
53065;DHT22;38948;48.376;-4.312;2022-08-04T15:13:07;24.70;64.50
53065;DHT22;38948;48.376;-4.312;2022-08-04T15:15:33;24.60;65.10
53065;DHT22;38948;48.376;-4.312;2022-08-04T15:17:59;24.60;65.00
53065;DHT22;38948;48.376;-4.312;2022-08-04T15:20:27;24.60;65.10
53065;DHT22;38948;48.376;-4.312;2022-08-04T15:22:55;24.60;64.50
53065;DHT22;38948;48.376;-4.312;2022-08-04T15:25:20;24.60;63.50
53065;DHT22;38948;48.376;-4.312;2022-08-04T15:27:49;24.60;61.30
53065;DHT22;38948;48.376;-4.312;2022-08-04T15:30:17;24.50;61.10
53065;DHT22;38948;48.376;-4.312;2022-08-04T15:33:01;24.50;61.50
53065;DHT22;38948;48.376;-4.312;2022-08-04T15:35:28;24.50;62.40
53065;DHT22;38948;48.376;-4.312;2022-08-04T15:45:58;24.60;61.10
53065;DHT22;38948;48.376;-4.312;2022-08-04T15:48:30;24.60;61.10
53065;DHT22;38948;48.376;-4.312;2022-08-04T15:53:23;24.60;61.80
53065;DHT22;38948;48.376;-4.312;2022-08-04T15:55:50;24.60;62.00
53065;DHT22;38948;48.376;-4.312;2022-08-04T15:58:17;24.60;61.80
53065;DHT22;38948;48.376;-4.312;2022-08-04T16:21:59;24.50;61.90
53065;DHT22;38948;48.376;-4.312;2022-08-04T16:24:35;24.50;61.80
53065;DHT22;38948;48.376;-4.312;2022-08-04T16:27:02;24.50;61.30
53065;DHT22;38948;48.376;-4.312;2022-08-04T16:29:31;24.40;61.50
53065;DHT22;38948;48.376;-4.312;2022-08-04T16:37:22;24.40;61.10
53065;DHT22;38948;48.376;-4.312;2022-08-04T16:39:48;24.40;60.90
53065;DHT22;38948;48.376;-4.312;2022-08-04T16:42:28;24.40;61.10
53065;DHT22;38948;48.376;-4.312;2022-08-04T16:45:13;24.30;60.70
53065;DHT22;38948;48.376;-4.312;2022-08-04T16:50:17;24.30;60.50
53065;DHT22;38948;48.376;-4.312;2022-08-04T16:52:47;24.30;60.70
53065;DHT22;38948;48.376;-4.312;2022-08-04T16:55:26;24.30;60.70
53065;DHT22;38948;48.376;-4.312;2022-08-04T16:57:55;24.30;60.80
53065;DHT22;38948;48.376;-4.312;2022-08-04T17:02:55;24.20;60.30
53065;DHT22;38948;48.376;-4.312;2022-08-04T17:05:25;24.10;60.30
53065;DHT22;38948;48.376;-4.312;2022-08-04T17:07:56;24.20;60.10
53065;DHT22;38948;48.376;-4.312;2022-08-04T17:10:43;24.10;60.10
53065;DHT22;38948;48.376;-4.312;2022-08-04T17:15:57;24.10;60.50
53065;DHT22;38948;48.376;-4.312;2022-08-04T17:18:27;24.10;60.40
53065;DHT22;38948;48.376;-4.312;2022-08-04T17:20:55;24.10;60.90
53065;DHT22;38948;48.376;-4.312;2022-08-04T17:26:15;24.00;60.30
53065;DHT22;38948;48.376;-4.312;2022-08-04T17:28:45;24.00;59.70
53065;DHT22;38948;48.376;-4.312;2022-08-04T17:31:11;24.00;59.20
53065;DHT22;38948;48.376;-4.312;2022-08-04T17:33:38;24.00;59.20
53065;DHT22;38948;48.376;-4.312;2022-08-04T17:36:06;23.90;59.20
53065;DHT22;38948;48.376;-4.312;2022-08-04T17:38:45;23.90;59.10
53065;DHT22;38948;48.376;-4.312;2022-08-04T17:41:13;23.90;58.70
53065;DHT22;38948;48.376;-4.312;2022-08-04T17:43:50;23.80;58.80
53065;DHT22;38948;48.376;-4.312;2022-08-04T17:51:54;23.80;58.40
53065;DHT22;38948;48.376;-4.312;2022-08-04T17:54:36;23.70;58.40
53065;DHT22;38948;48.376;-4.312;2022-08-04T17:57:14;23.70;58.60
53065;DHT22;38948;48.376;-4.312;2022-08-04T17:59:54;23.60;58.60
53065;DHT22;38948;48.376;-4.312;2022-08-04T18:02:28;23.60;58.30
53065;DHT22;38948;48.376;-4.312;2022-08-04T18:04:54;23.60;58.40
53065;DHT22;38948;48.376;-4.312;2022-08-04T18:07:34;23.60;58.40
53065;DHT22;38948;48.376;-4.312;2022-08-04T18:10:00;23.50;58.30
53065;DHT22;38948;48.376;-4.312;2022-08-04T18:12:31;23.40;58.70
53065;DHT22;38948;48.376;-4.312;2022-08-04T18:14:58;23.40;58.70
53065;DHT22;38948;48.376;-4.312;2022-08-04T18:17:33;23.40;58.90
53065;DHT22;38948;48.376;-4.312;2022-08-04T18:20:00;23.40;58.70
53065;DHT22;38948;48.376;-4.312;2022-08-04T18:22:27;23.40;58.80
53065;DHT22;38948;48.376;-4.312;2022-08-04T18:24:53;23.40;58.90
53065;DHT22;38948;48.376;-4.312;2022-08-04T18:27:24;23.40;58.90
53065;DHT22;38948;48.376;-4.312;2022-08-04T18:29:51;23.40;58.70
53065;DHT22;38948;48.376;-4.312;2022-08-04T18:32:17;23.40;58.50
53065;DHT22;38948;48.376;-4.312;2022-08-04T18:34:45;23.30;58.10
53065;DHT22;38948;48.376;-4.312;2022-08-04T18:37:11;23.30;57.70
53065;DHT22;38948;48.376;-4.312;2022-08-04T18:39:37;23.30;57.70
53065;DHT22;38948;48.376;-4.312;2022-08-04T18:42:02;23.30;57.70
53065;DHT22;38948;48.376;-4.312;2022-08-04T18:44:30;23.30;57.40
53065;DHT22;38948;48.376;-4.312;2022-08-04T18:46:59;23.20;57.60
53065;DHT22;38948;48.376;-4.312;2022-08-04T18:49:26;23.20;57.70
53065;DHT22;38948;48.376;-4.312;2022-08-04T18:51:53;23.10;57.80
53065;DHT22;38948;48.376;-4.312;2022-08-04T18:54:20;23.10;58.10
53065;DHT22;38948;48.376;-4.312;2022-08-04T18:56:48;23.10;58.30
53065;DHT22;38948;48.376;-4.312;2022-08-04T18:59:14;23.10;58.20
53065;DHT22;38948;48.376;-4.312;2022-08-04T19:01:40;23.10;58.40
53065;DHT22;38948;48.376;-4.312;2022-08-04T19:04:06;23.10;58.30
53065;DHT22;38948;48.376;-4.312;2022-08-04T19:06:33;23.10;58.40
53065;DHT22;38948;48.376;-4.312;2022-08-04T19:08:59;23.10;58.40
53065;DHT22;38948;48.376;-4.312;2022-08-04T19:11:25;23.10;58.20
53065;DHT22;38948;48.376;-4.312;2022-08-04T19:13:51;23.10;58.20
53065;DHT22;38948;48.376;-4.312;2022-08-04T19:16:17;23.00;58.20
53065;DHT22;38948;48.376;-4.312;2022-08-04T19:18:43;23.00;58.60
53065;DHT22;38948;48.376;-4.312;2022-08-04T19:21:09;23.10;58.40
53065;DHT22;38948;48.376;-4.312;2022-08-04T19:23:35;23.10;58.10
53065;DHT22;38948;48.376;-4.312;2022-08-04T19:26:01;23.10;57.90
53065;DHT22;38948;48.376;-4.312;2022-08-04T19:28:28;23.10;57.60
53065;DHT22;38948;48.376;-4.312;2022-08-04T19:30:54;23.00;57.60
53065;DHT22;38948;48.376;-4.312;2022-08-04T19:33:21;23.00;57.70
53065;DHT22;38948;48.376;-4.312;2022-08-04T19:35:47;23.00;57.60
53065;DHT22;38948;48.376;-4.312;2022-08-04T19:38:13;23.00;57.30
53065;DHT22;38948;48.376;-4.312;2022-08-04T19:40:39;22.90;57.40
53065;DHT22;38948;48.376;-4.312;2022-08-04T19:43:06;22.90;57.50
53065;DHT22;38948;48.376;-4.312;2022-08-04T19:45:32;22.90;57.60
53065;DHT22;38948;48.376;-4.312;2022-08-04T19:47:58;22.80;57.50
53065;DHT22;38948;48.376;-4.312;2022-08-04T19:50:25;22.70;58.60
53065;DHT22;38948;48.376;-4.312;2022-08-04T19:52:51;22.50;58.40
53065;DHT22;38948;48.376;-4.312;2022-08-04T19:55:19;22.30;59.00
53065;DHT22;38948;48.376;-4.312;2022-08-04T19:57:45;22.20;59.60
53065;DHT22;38948;48.376;-4.312;2022-08-04T20:00:12;22.10;60.30
53065;DHT22;38948;48.376;-4.312;2022-08-04T20:02:39;22.10;60.60
53065;DHT22;38948;48.376;-4.312;2022-08-04T20:05:05;22.00;61.10
53065;DHT22;38948;48.376;-4.312;2022-08-04T20:07:32;21.90;61.30
53065;DHT22;38948;48.376;-4.312;2022-08-04T20:09:58;21.90;62.10
53065;DHT22;38948;48.376;-4.312;2022-08-04T20:12:24;21.90;62.40
53065;DHT22;38948;48.376;-4.312;2022-08-04T20:14:50;21.90;62.60
53065;DHT22;38948;48.376;-4.312;2022-08-04T20:17:16;21.90;62.90
53065;DHT22;38948;48.376;-4.312;2022-08-04T20:19:41;21.80;62.50
53065;DHT22;38948;48.376;-4.312;2022-08-04T20:22:10;21.80;63.00
53065;DHT22;38948;48.376;-4.312;2022-08-04T20:24:37;21.80;63.60
53065;DHT22;38948;48.376;-4.312;2022-08-04T20:27:03;21.80;63.90
53065;DHT22;38948;48.376;-4.312;2022-08-04T20:29:29;21.80;63.70